Castro Valley, CA

9:40 AM PDT on September 22, 2014 (GMT -0700)
Castro Valley | Change Station
CLOSE
Current Station
Personal Weather Station
Location: Castro Valley, CA
Elevation: 367 ft
Nearby Weather Stations

Elev 367 ft 37.72 °N, 122.08 °W | Updated 1 minute ago

Overcast
Overcast
67.5 °F
Feels Like 67.5 °F
N
0.0
Wind Variable Wind from SSW
Gusts 2.5 mph

Today
High -- | Low -- °F
--% Chance of Precip.
Yesterday
High -- | Low -- °F
Precip. -- in
6:56 AM 7:05 PM
Waning Crescent, 2% visible
Pressure 30.06 in
Visibility 10.0 miles
Clouds Overcast 1900 ft
Dew Point 49 °F
Humidity 52%
Rainfall 0.00 in
Snow Depth 0 in , 0 in , 0 in
UV 1 out of 12
Pollen 3.70 out of 12
Ozone Good
PM2.5 Good
Flu Activity Not available.
METAR KHWD 221554Z 27005KT 10SM OVC019 20/15 A3004 RMK AO2 SLP179 T02000150 $

More Conditions Fewer Conditions

Pressure 30.06 in
Visibility 10.0 miles
Clouds Overcast 1900 ft
Dew Point 49 °F
Humidity 52%
Rainfall 0.00 in
Snow Depth 0 in , 0 in , 0 in
UV 1 out of 12
Pollen 3.70 out of 12
Ozone Good
PM2.5 Good
Flu Activity Not available.
METAR KHWD 221554Z 27005KT 10SM OVC019 20/15 A3004 RMK AO2 SLP179 T02000150 $

More Conditions Fewer Conditions

10-Day Weather Forecast

Almanac

Astronomy

Sep. 22, 2014 Rise Set
Actual Time 6:56 AM PDT 7:05 PM PDT
Civil Twilight 6:30 AM PDT 7:31 PM PDT
Nautical Twilight 5:59 AM PDT 8:01 PM PDT
Astronomical Twilight 5:28 AM PDT 8:32 PM PDT
Moon 5:30 AM PDT 6:14 PM PDT
Length of Visible Light 13h 01m
Length of Day
12h 08m
Tomorrow will be 2m 25s shorter.
Waning Crescent, 2% of the Moon is Illuminated
Today
Waning Crescent
Sep 24
New
Oct 1
First Quarter
Oct 8
Full
Oct 15
Last Quarter

Today's Extremes

State Highs State Lows

Community

WunderPhotos

Upload Photos

1,755,480 photos uploaded!

WunderBlogs® & News

Nearby

Air Quality

  Air Quality AQ Index Pollutant
Yesterday Good
OZONE
Yesterday Good
PM2.5
Current Good
PM2.5
Current Good
OZONE
Monday Good
PM2.5
Tuesday Good
PM2.5
Wednesday Good
OZONE
Thursday Good
OZONE
Friday Good
PM2.5

Snow Depth

Station Depth Elevation
Burnside Lake 0 in 8139 ft
Summit Meadow 0 in 9122 ft
Poison Flat 0 in 7900 ft
Monitor Pass 0 in 8350 ft
Fallen Leaf 0 in 6300 ft

Earthquake Activity

City Distance Mag. Time & Date
Sonoma, California 45 miles 2.7 1:17 PM PDT
2014-09-21
Cloverdale, California 88 miles 2.5 9:15 PM PDT
2014-09-20
Livermore, California 19 miles 2.6 3:37 AM PDT
2014-09-19
Minimum magnitude displayed is 2.5.

Coastal Water Temperatures

Place Temperature
No Stations Reporting

Nearby Weather Stations